Latest Coastal Weather Observations for Portland Airport

IDV60701

Issued at 8:11 pm EST Friday 22 May 2015 (issued every 10 minutes, with the page automatically refreshed every 10 minutes)

About coastal observations | Map of coastal stations | Coastal observations for VIC | Marine services | Other Formats
Station Details ID: 090171 Name: CASHMORE AIRPORT Lat: -38.31 Lon: 141.47 Height: 80.9 m
Data from the previous 72 hours. | See also: Recent months at Portland Airport
Date/Time
EST
Temp

°C
Wind Pressure Rain
since 9am
mm
Weather Cloud Vis
km
Sea
Height
m
Swell
Dir
 
Speed
knots
Gust
knots
hPa Trend Height
m
Period
s
Dir
22/08:00pm 10.5 SE 7 11 1033.5 - 0.0 - Cloudy 10 - - - -
22/07:30pm 10.7 SE 5 8 1033.3 - 0.0 - Cloudy 10 - - - -
22/07:00pm 10.7 SSE 5 7 1033.2 - 0.0 - Cloudy 10 - - - -
22/06:30pm 10.6 SE 5 7 1033.0 - 0.0 - Cloudy 10 - - - -
22/06:00pm 10.7 SSE 5 8 1032.8 - 0.0 - Cloudy 10 - - - -
22/05:30pm 10.8 SE 6 9 1032.6 - 0.0 - Cloudy 10 - - - -
22/05:00pm 10.9 SSE 7 11 1032.7 - 0.0 - Cloudy 10 - - - -
22/04:30pm 11.0 SSE 7 11 1032.6 - 0.0 - Cloudy 10 - - - -
22/04:00pm 11.2 SE 6 10 1032.5 - 0.0 - Cloudy 10 - - - -
22/03:30pm 11.3 SE 7 11 1032.3 - 0.0 - Cloudy 10 - - - -
22/03:00pm 11.5 SSE 9 13 1032.0 - 0.0 - Cloudy 10 - - - -
22/02:30pm 11.6 SE 8 11 1032.1 - 0.0 - Cloudy 10 - - - -
22/02:00pm 11.6 SE 8 12 1032.1 - 0.0 - Cloudy 10 - - - -
22/01:30pm 11.6 SE 8 12 1032.2 - 0.0 - Cloudy 10 - - - -
22/01:00pm 11.6 SSE 6 8 1032.4 - 0.0 - Cloudy 10 - - - -
22/12:30pm 11.5 SSE 7 9 1032.6 - 0.0 - Cloudy 10 - - - -
22/12:00pm 11.4 SSE 9 12 1032.8 - 0.0 - Cloudy 10 - - - -
22/11:30am 11.4 SE 8 13 1032.8 - 0.0 - Cloudy 10 - - - -
22/11:00am 11.3 SE 10 15 1032.8 - 0.0 - Cloudy 10 - - - -
22/10:30am 11.2 SE 8 13 1032.7 - 0.0 - Cloudy 10 - - - -
22/10:00am 11.2 SE 9 13 1032.4 - 0.0 - Cloudy 10 - - - -
22/09:30am 11.0 SE 8 11 1032.3 - 0.0 - Cloudy 10 - - - -
22/09:00am 11.0 SSE 8 13 1032.2 - 0.8 - Cloudy 10 - - - -
22/08:30am 10.9 SSE 7 11 1031.9 - 0.8 - Cloudy 10 - - - -
22/08:00am 10.7 SE 7 10 1031.6 - 0.8 - Cloudy 10 - - - -
22/07:30am 10.8 SE 8 13 1031.3 - 0.8 - Cloudy 10 - - - -
22/07:00am 10.8 SE 7 10 1031.1 - 0.8 - Cloudy 10 - - - -
22/06:30am 10.9 SE 8 11 1030.8 - 0.8 - Cloudy 10 - - - -
22/06:00am 11.0 SSE 5 8 1030.3 - 0.8 - Cloudy 10 - - - -
22/05:30am 11.1 SSE 7 11 1030.2 - 0.8 - Cloudy 10 - - - -
22/05:00am 11.1 SSE 7 12 1030.0 - 0.8 - Cloudy 10 - - - -
22/04:30am 11.2 SSE 7 11 1029.9 - 0.8 - Cloudy 10 - - - -
22/04:00am 11.0 SSE 5 9 1029.8 - 0.8 - Cloudy 10 - - - -
22/03:30am 11.0 SE 7 9 1029.7 - 0.8 - Cloudy 10 - - - -
22/03:00am 11.1 SSE 7 10 1029.7 - 0.8 - Cloudy 10 - - - -
22/02:30am 11.1 SSE 7 11 1029.6 - 0.8 - Cloudy 10 - - - -
22/02:00am 11.1 SE 8 11 1029.6 - 0.8 - Cloudy 10 - - - -
22/01:30am 11.3 SSE 7 12 1029.4 - 0.8 - Cloudy 10 - - - -
22/01:00am 11.1 SSE 6 9 1029.3 - 0.8 - Cloudy 10 - - - -
22/12:30am 10.7 SSE 6 9 1029.3 - 0.8 - Cloudy 10 - - - -
22/12:00am 10.0 SSE 5 7 1029.3 - 0.8 - Partly cloudy 10 - - - -
 
Date/Time
EST
Temp

°C
Wind Pressure Rain
since 9am
mm
Weather Cloud Vis
km
Sea
Height
m
Swell
Dir
 
Speed
knots
Gust
knots
hPa Trend Height
m
Period
s
Dir
21/11:30pm 10.9 SSE 8 13 1029.3 - 0.8 - Partly cloudy 10 - - - -
21/11:00pm 11.0 SSE 7 12 1029.3 - 0.8 - Partly cloudy 10 - - - -
21/10:30pm 10.9 SSE 6 9 1029.4 - 0.8 - Partly cloudy 10 - - - -
21/10:00pm 10.8 SSE 7 11 1029.3 - 0.8 - Partly cloudy 10 - - - -
21/09:30pm 10.9 S 8 13 1029.2 - 0.8 - Partly cloudy 10 - - - -
21/09:00pm 10.9 SSE 7 10 1029.0 - 0.8 - Cloudy 10 - - - -
21/08:30pm 10.7 SSE 7 10 1028.7 - 0.8 - Partly cloudy 10 - - - -
21/08:00pm 10.8 SSE 7 13 1028.5 - 0.8 - Partly cloudy 10 - - - -
21/07:30pm 10.8 SSE 8 10 1028.3 - 0.8 - Partly cloudy 10 - - - -
21/07:00pm 10.6 SE 8 10 1027.9 - 0.8 - Partly cloudy 10 - - - -
21/06:30pm 10.7 SE 7 12 1027.8 - 0.8 - Partly cloudy 10 - - - -
21/06:00pm 10.7 SE 8 14 1027.4 - 0.8 Recent precip. Cloudy 10 - - - -
21/05:50pm 10.6 SE 8 13 1027.2 - 0.8 - Partly cloudy 10 - - - -
21/05:37pm 10.9 SSE 7 12 1027.1 - 0.8 - Partly cloudy 6 - - - -
21/05:30pm 10.9 SE 7 10 1027.0 - 0.6 - Partly cloudy 10 - - - -
21/05:00pm 11.3 SSE 7 11 1026.9 - 0.6 - Partly cloudy 10 - - - -
21/04:30pm 11.5 SE 7 13 1026.7 - 0.6 - Partly cloudy 10 - - - -
21/04:00pm 11.8 SSE 7 15 1026.5 - 0.6 - Partly cloudy 10 - - - -
21/03:30pm 11.8 S 6 9 1026.2 - 0.6 - Partly cloudy 10 - - - -
21/03:00pm 12.1 S 7 11 1025.9 - 0.6 - Cloudy 10 - - - -
21/02:30pm 12.5 SSE 7 11 1025.8 - 0.6 - Partly cloudy 10 - - - -
21/02:00pm 12.4 SSE 8 16 1025.8 - 0.6 - Partly cloudy 10 - - - -
21/01:30pm 12.6 SSE 8 13 1025.8 - 0.6 - Partly cloudy 10 - - - -
21/01:11pm 12.1 SSE 7 10 1026.0 - 0.6 - Partly cloudy 10 - - - -
21/01:00pm 11.8 SSE 9 13 1026.1 - 0.6 - Partly cloudy 10 - - - -
21/12:56pm 11.7 S 9 13 1026.1 - 0.6 - Partly cloudy 7 - - - -
21/12:30pm 13.0 S 7 11 1026.2 - 0.4 - Partly cloudy 10 - - - -
21/12:25pm 12.0 S 7 11 1026.3 - 0.4 - Partly cloudy 10 - - - -
21/12:09pm 11.9 S 7 12 1026.4 - 0.4 - Partly cloudy 10 - - - -
21/12:00pm 12.0 SSE 8 13 1026.5 - 0.4 Recent precip. Cloudy 10 - - - -
21/11:30am 11.2 S 7 12 1026.7 - 0.4 - Partly cloudy 10 - - - -
21/11:00am 12.1 S 7 12 1026.6 - 0.2 - Partly cloudy 10 - - - -
21/10:30am 10.6 S 7 11 1026.5 - 0.2 - Partly cloudy 10 - - - -
21/10:23am 10.7 S 7 11 1026.4 - 0.2 - Partly cloudy 10 - - - -
21/10:08am 10.8 SSW 8 12 1026.3 - 0.2 - Partly cloudy 6 - - - -
21/10:00am 11.1 SSW 7 10 1026.3 - 0.0 - Partly cloudy 10 - - - -
21/09:44am 11.0 S 8 12 1026.2 - 0.0 - Partly cloudy 10 - - - -
21/09:31am 10.9 S 5 7 1026.1 - 0.0 - Partly cloudy 10 - - - -
21/09:30am 10.7 S 5 7 1026.1 - 0.0 - Partly cloudy 10 - - - -
21/09:08am 10.3 SSW 5 8 1026.0 - 0.0 - Partly cloudy 10 - - - -
21/09:00am 10.1 SSW 6 9 1025.9 - 1.6 Rain Cloudy 7 - - - -
21/08:53am 10.2 S 7 12 1025.9 - 1.4 - Partly cloudy 6 - - - -
21/08:30am 9.7 S 4 6 1025.6 - 1.4 - Partly cloudy 10 - - - -
21/08:00am 9.3 S 5 9 1025.4 - 1.4 - Partly cloudy 10 - - - -
21/07:52am 9.5 SSW 5 7 1025.3 - 1.4 - Partly cloudy 10 - - - -
21/07:39am 9.4 SSW 7 10 1025.2 - 1.2 - Partly cloudy 6 - - - -
21/07:30am 9.6 SSW 7 12 1025.1 - 1.2 - Partly cloudy 10 - - - -
21/07:00am 9.9 S 7 11 1024.8 - 1.2 - Partly cloudy 10 - - - -
21/06:30am 10.2 SSW 5 8 1024.3 - 1.2 - Partly cloudy 10 - - - -
21/06:00am 9.7 SSW 5 9 1024.2 - 1.2 - Mostly cloudy 10 - - - -
21/05:30am 9.5 S 5 11 1023.9 - 1.2 - Partly cloudy 10 - - - -
21/05:00am 9.6 SW 7 10 1023.6 - 1.2 - Partly cloudy 10 - - - -
21/04:30am 9.7 SW 8 12 1023.5 - 1.2 - Partly cloudy 10 - - - -
21/04:00am 10.4 S 6 9 1023.3 - 1.2 - Partly cloudy 10 - - - -
21/03:30am 10.3 S 7 11 1023.3 - 1.2 - Cloudy 10 - - - -
21/03:00am 10.5 SSW 8 13 1023.3 - 1.2 - Cloudy 10 - - - -
21/02:30am 10.4 SSW 7 13 1023.3 - 1.2 - Cloudy 10 - - - -
21/02:00am 10.2 S 7 12 1023.2 - 1.2 - Cloudy 10 - - - -
21/01:30am 10.1 SSW 6 10 1023.1 - 1.2 - Cloudy 10 - - - -
21/01:00am 10.4 SSW 9 14 1023.1 - 1.2 - Cloudy 10 - - - -
21/12:30am 9.9 SSW 6 10 1023.0 - 1.2 - Partly cloudy 10 - - - -
21/12:00am 9.9 SSW 6 12 1023.0 - 1.2 - Cloudy 10 - - - -
 
Date/Time
EST
Temp

°C
Wind Pressure Rain
since 9am
mm
Weather Cloud Vis
km
Sea
Height
m
Swell
Dir
 
Speed
knots
Gust
knots
hPa Trend Height
m
Period
s
Dir
20/11:30pm 9.5 SSW 8 11 1022.9 - 1.2 - Cloudy 10 - - - -
20/11:00pm 8.4 S 6 12 1023.0 - 1.2 - Partly cloudy 10 - - - -
20/10:57pm 8.4 S 7 12 1023.0 - 1.2 - Partly cloudy 9 - - - -
20/10:42pm 8.8 S 7 16 1023.1 - 1.0 - Partly cloudy 6 - - - -
20/10:34pm 8.6 S 6 9 1023.0 - 1.0 - Partly cloudy 10 - - - -
20/10:30pm 8.6 S 7 12 1022.9 - 1.0 - Partly cloudy 10 - - - -
20/10:23pm 8.8 S 7 11 1022.9 - 1.0 - Partly cloudy 6 - - - -
20/10:00pm 9.4 S 9 16 1022.8 - 0.6 - Partly cloudy 10 - - - -
20/09:30pm 9.9 S 7 12 1022.4 - 0.4 - Partly cloudy 10 - - - -
20/09:00pm 10.2 SSW 7 13 1022.0 - 0.4 - Cloudy 10 - - - -
20/08:30pm 9.6 S 7 11 1021.7 - 0.4 - Partly cloudy 10 - - - -
20/08:00pm 9.1 SSE 6 10 1021.6 - 0.4 - Partly cloudy 10 - - - -
20/07:30pm 9.2 S 6 9 1021.4 - 0.4 - Partly cloudy 8 - - - -
20/07:00pm 9.1 S 7 13 1021.0 - 0.4 - Partly cloudy 10 - - - -
20/06:30pm 9.0 S 8 14 1020.6 - 0.4 - Partly cloudy 10 - - - -
20/06:00pm 9.4 S 11 17 1020.1 - 0.2 - Cloudy 9 - - - -
20/05:30pm 9.3 S 11 16 1019.4 - 0.2 - Partly cloudy 10 - - - -
20/05:00pm 9.9 S 9 16 1018.9 - 0.2 - Partly cloudy 10 - - - -
20/04:30pm 10.0 S 11 18 1018.6 - 0.2 - Partly cloudy 10 - - - -
20/04:00pm 10.3 SSW 12 21 1018.1 - 0.2 - Partly cloudy 10 - - - -
20/03:31pm 10.0 SSW 11 21 1017.7 - 0.2 - Partly cloudy 10 - - - -
20/03:30pm 10.0 SSW 11 21 1017.7 - 0.2 - Partly cloudy 10 - - - -
20/03:14pm 10.4 SSW 12 18 1017.4 - 0.2 - Partly cloudy 10 - - - -
20/03:00pm 10.5 SSW 11 20 1017.1 - 0.2 - Cloudy 10 - - - -
20/02:30pm 11.1 SSW 11 20 1016.6 - 0.2 - Partly cloudy 10 - - - -
20/02:00pm 10.8 SSW 12 19 1016.4 - 0.2 - Partly cloudy 10 - - - -
20/01:30pm 11.1 S 10 21 1016.0 - 0.2 - Partly cloudy 10 - - - -
20/01:08pm 11.3 SSW 11 23 1015.8 - 0.2 - Partly cloudy 10 - - - -
20/01:00pm 11.2 S 11 18 1015.9 - 0.2 - Partly cloudy 10 - - - -
20/12:51pm 11.1 S 11 16 1015.8 - 0.2 - Partly cloudy 10 - - - -
20/12:30pm 11.4 S 12 23 1015.8 - 0.2 - Partly cloudy 10 - - - -
20/12:00pm 11.4 SSW 11 19 1015.6 - 0.2 - Cloudy 10 - - - -
20/11:30am 11.2 S 13 21 1015.5 - 0.2 - Partly cloudy 10 - - - -
20/11:23am 11.4 S 13 23 1015.3 - 0.2 - Partly cloudy 10 - - - -
20/11:00am 11.5 S 14 23 1014.9 - 0.2 - Partly cloudy 10 - - - -
20/10:30am 11.1 S 12 20 1014.2 - 0.2 - Partly cloudy 10 - - - -
20/10:22am 11.3 S 13 21 1014.1 - 0.2 - Partly cloudy 7 - - - -
20/10:10am 11.7 S 12 22 1013.8 - 0.0 - Partly cloudy 10 - - - -
20/10:00am 11.4 S 14 22 1013.6 - 0.0 - Partly cloudy 10 - - - -
20/09:30am 11.8 S 12 20 1012.8 - 0.0 - Partly cloudy 10 - - - -
20/09:01am 12.2 S 15 25 1012.0 - 0.0 - Partly cloudy 10 - - - -
20/09:00am 12.2 S 14 25 1012.0 - 3.4 Recent precip. Cloudy 10 - - - -
20/08:49am 12.0 S 15 25 1011.8 - 3.4 - Partly cloudy 10 - - - -
20/08:30am 11.8 S 10 19 1011.2 - 3.4 - Partly cloudy 7 - - - -
20/08:00am 12.2 SSW 12 19 1010.2 - 3.2 - Partly cloudy 10 - - - -
20/07:49am 12.1 S 7 13 1009.6 - 3.0 - Partly cloudy 10 - - - -
20/07:48am 12.1 S 7 13 1009.6 - 3.0 - Partly cloudy 10 - - - -
20/07:43am 12.0 S 9 14 1009.5 - 3.0 - Partly cloudy 10 - - - -
20/07:30am 12.3 SSW 12 21 1009.3 - 2.8 - Partly cloudy 3 - - - -
20/07:23am 12.8 SSW 12 21 1009.0 - 1.4 - Partly cloudy 6 - - - -
20/07:00am 13.1 SW 10 15 1008.3 - 0.6 - Partly cloudy 10 - - - -
20/06:30am 12.9 SW 10 13 1007.8 - 0.6 - Partly cloudy 10 - - - -
20/06:00am 13.3 WSW 10 14 1007.0 - 0.6 - Cloudy 10 - - - -
20/05:30am 13.2 WNW 11 15 1006.3 - 0.6 - Partly cloudy 10 - - - -
20/05:00am 12.7 NW 12 16 1005.8 - 0.6 - Partly cloudy 10 - - - -
20/04:56am 12.7 NW 12 17 1005.7 - 0.6 - Partly cloudy 10 - - - -
20/04:30am 12.5 NNW 9 15 1005.4 - 0.6 - Partly cloudy 10 - - - -
20/04:00am 12.6 NW 12 18 1005.3 - 0.6 - Partly cloudy 10 - - - -
20/03:30am 12.7 NW 11 15 1005.2 - 0.6 - Partly cloudy 10 - - - -
20/03:00am 12.8 NW 13 19 1005.0 - 0.6 - Cloudy 10 - - - -
20/02:30am 13.1 NW 9 15 1005.1 - 0.6 - Partly cloudy 10 - - - -
20/02:00am 13.6 NW 11 16 1004.7 - 0.6 - Cloudy 10 - - - -
20/01:30am 13.7 NW 12 17 1004.6 - 0.6 - Cloudy 10 - - - -
20/01:17am 13.7 NW 11 19 1004.6 - 0.6 - Partly cloudy 10 - - - -
20/01:00am 13.7 NW 13 20 1004.6 - 0.6 - Partly cloudy 10 - - - -
20/12:36am 13.8 NNW 11 17 1004.6 - 0.6 - Partly cloudy 10 - - - -
20/12:30am 13.9 NNW 12 17 1004.5 - 0.6 - Partly cloudy 10 - - - -
20/12:00am 13.4 NNW 9 11 1004.6 - 0.6 - Cloudy 10 - - - -
 
Date/Time
EST
Temp

°C
Wind Pressure Rain
since 9am
mm
Weather Cloud Vis
km
Sea
Height
m
Swell
Dir
 
Speed
knots
Gust
knots
hPa Trend Height
m
Period
s
Dir
19/11:30pm 13.4 N 8 12 1004.8 - 0.6 - Partly cloudy 10 - - - -
19/11:00pm 12.9 N 7 10 1005.0 - 0.6 - Partly cloudy 10 - - - -
19/10:30pm 12.9 N 6 8 1005.1 - 0.6 - Partly cloudy 10 - - - -
19/10:00pm 12.9 N 6 8 1005.5 - 0.6 - Partly cloudy 10 - - - -
19/09:30pm 12.9 N 5 7 1005.7 - 0.6 - Partly cloudy 10 - - - -
19/09:00pm 13.1 N 6 8 1005.8 - 0.6 - Cloudy 10 - - - -
19/08:30pm 13.3 NNE 6 8 1005.9 - 0.6 - Partly cloudy 10 - - - -

Other Formats:

Comma delimited format used in spreadsheet applications
http://www.bom.gov.au/fwo/IDV60701/IDV60701.94828.axf

JavaScript Object Notation format (JSON) in row-major order
http://www.bom.gov.au/fwo/IDV60701/IDV60701.94828.json